sensor_id;sensor_type;location;lat;lon;timestamp;pressure;altitude;pressure_sealevel;temperature
62107;BMP280;48087;32.600;-97.100;2023-02-15T00:02:23;;;;20.499795000000002
62107;BMP280;48087;32.600;-97.100;2023-02-15T00:07:26;;;;20.277575
62107;BMP280;48087;32.600;-97.100;2023-02-15T00:12:31;;;;20.055354999999995
62107;BMP280;48087;32.600;-97.100;2023-02-15T00:17:34;;;;19.944245000000002
62107;BMP280;48087;32.600;-97.100;2023-02-15T00:22:38;;;;19.722025
62107;BMP280;48087;32.600;-97.100;2023-02-15T00:27:42;;;;19.499804999999995
62107;BMP280;48087;32.600;-97.100;2023-02-15T00:32:47;;;;19.222029999999997
62107;BMP280;48087;32.600;-97.100;2023-02-15T00:37:50;;;;19.110920000000004
62107;BMP280;48087;32.600;-97.100;2023-02-15T00:42:55;;;;18.833145000000002
62107;BMP280;48087;32.600;-97.100;2023-02-15T00:47:59;;;;18.722035
62107;BMP280;48087;32.600;-97.100;2023-02-15T00:53:01;;;;18.388704999999998
62107;BMP280;48087;32.600;-97.100;2023-02-15T00:58:06;;;;17.999820000000003
62107;BMP280;48087;32.600;-97.100;2023-02-15T01:03:11;;;;17.7776
62107;BMP280;48087;32.600;-97.100;2023-02-15T01:08:15;;;;17.277605
62107;BMP280;48087;32.600;-97.100;2023-02-15T01:13:19;;;;16.99983
62107;BMP280;48087;32.600;-97.100;2023-02-15T01:18:22;;;;16.88872
62107;BMP280;48087;32.600;-97.100;2023-02-15T01:23:26;;;;16.722055
62107;BMP280;48087;32.600;-97.100;2023-02-15T01:28:30;;;;16.499835
62107;BMP280;48087;32.600;-97.100;2023-02-15T01:33:35;;;;16.166505
62107;BMP280;48087;32.600;-97.100;2023-02-15T01:38:37;;;;15.833174999999999
62107;BMP280;48087;32.600;-97.100;2023-02-15T01:43:44;;;;15.88873
62107;BMP280;48087;32.600;-97.100;2023-02-15T01:48:47;;;;15.66651
62107;BMP280;48087;32.600;-97.100;2023-02-15T01:53:51;;;;15.555399999999999
62107;BMP280;48087;32.600;-97.100;2023-02-15T01:58:53;;;;15.277625
62107;BMP280;48087;32.600;-97.100;2023-02-15T02:04:00;;;;15.166514999999999
62107;BMP280;48087;32.600;-97.100;2023-02-15T02:09:02;;;;14.99985
62107;BMP280;48087;32.600;-97.100;2023-02-15T02:14:06;;;;14.499855
62107;BMP280;48087;32.600;-97.100;2023-02-15T02:19:19;;;;13.999860000000002
62107;BMP280;48087;32.600;-97.100;2023-02-15T02:24:20;;;;13.777639999999998
62107;BMP280;48087;32.600;-97.100;2023-02-15T02:29:23;;;;13.610975
62107;BMP280;48087;32.600;-97.100;2023-02-15T02:34:23;;;;13.388755
62107;BMP280;48087;32.600;-97.100;2023-02-15T02:39:28;;;;13.388755
62107;BMP280;48087;32.600;-97.100;2023-02-15T02:44:31;;;;13.999860000000002
62107;BMP280;48087;32.600;-97.100;2023-02-15T02:49:34;;;;13.833194999999998
62107;BMP280;48087;32.600;-97.100;2023-02-15T02:54:39;;;;13.88875
62107;BMP280;48087;32.600;-97.100;2023-02-15T02:59:41;;;;13.499864999999998
62107;BMP280;48087;32.600;-97.100;2023-02-15T03:04:47;;;;13.166535000000001
62107;BMP280;48087;32.600;-97.100;2023-02-15T03:09:50;;;;13.055425
62107;BMP280;48087;32.600;-97.100;2023-02-15T03:14:56;;;;12.722095
62107;BMP280;48087;32.600;-97.100;2023-02-15T03:19:58;;;;12.77765
62107;BMP280;48087;32.600;-97.100;2023-02-15T03:25:04;;;;12.944314999999998
62107;BMP280;48087;32.600;-97.100;2023-02-15T03:30:05;;;;12.77765
62107;BMP280;48087;32.600;-97.100;2023-02-15T03:35:10;;;;12.77765
62107;BMP280;48087;32.600;-97.100;2023-02-15T03:40:15;;;;12.722095
62107;BMP280;48087;32.600;-97.100;2023-02-15T03:45:21;;;;12.333210000000001
62107;BMP280;48087;32.600;-97.100;2023-02-15T03:50:22;;;;12.2221
62107;BMP280;48087;32.600;-97.100;2023-02-15T03:55:26;;;;12.388764999999998
62107;BMP280;48087;32.600;-97.100;2023-02-15T04:00:29;;;;12.388764999999998
62107;BMP280;48087;32.600;-97.100;2023-02-15T04:05:34;;;;12.277655000000001
62107;BMP280;48087;32.600;-97.100;2023-02-15T04:10:37;;;;12.2221
62107;BMP280;48087;32.600;-97.100;2023-02-15T04:15:42;;;;11.999880000000001
62107;BMP280;48087;32.600;-97.100;2023-02-15T04:20:45;;;;11.833214999999997
62107;BMP280;48087;32.600;-97.100;2023-02-15T04:25:50;;;;11.555439999999999
62107;BMP280;48087;32.600;-97.100;2023-02-15T04:30:54;;;;11.22211
62107;BMP280;48087;32.600;-97.100;2023-02-15T04:35:58;;;;11.499885
62107;BMP280;48087;32.600;-97.100;2023-02-15T04:41:02;;;;11.333219999999999
62107;BMP280;48087;32.600;-97.100;2023-02-15T04:46:05;;;;11.777660000000001
62107;BMP280;48087;32.600;-97.100;2023-02-15T04:51:09;;;;11.722105
62107;BMP280;48087;32.600;-97.100;2023-02-15T04:56:13;;;;11.666549999999999
62107;BMP280;48087;32.600;-97.100;2023-02-15T05:01:17;;;;11.277664999999999
62107;BMP280;48087;32.600;-97.100;2023-02-15T05:06:22;;;;11.055444999999999
62107;BMP280;48087;32.600;-97.100;2023-02-15T05:11:25;;;;10.944335
62107;BMP280;48087;32.600;-97.100;2023-02-15T05:16:30;;;;10.499894999999999
62107;BMP280;48087;32.600;-97.100;2023-02-15T05:21:34;;;;10.166564999999999
62107;BMP280;48087;32.600;-97.100;2023-02-15T05:26:37;;;;9.833235000000002
62107;BMP280;48087;32.600;-97.100;2023-02-15T05:31:41;;;;9.77768
62107;BMP280;48087;32.600;-97.100;2023-02-15T05:36:46;;;;9.77768
62107;BMP280;48087;32.600;-97.100;2023-02-15T05:41:49;;;;9.388794999999998
62107;BMP280;48087;32.600;-97.100;2023-02-15T05:46:54;;;;9.055464999999998
62107;BMP280;48087;32.600;-97.100;2023-02-15T05:51:57;;;;8.8888
62107;BMP280;48087;32.600;-97.100;2023-02-15T05:57:02;;;;8.8888
62107;BMP280;48087;32.600;-97.100;2023-02-15T06:02:05;;;;9.22213
62107;BMP280;48087;32.600;-97.100;2023-02-15T06:07:10;;;;9.44435
62107;BMP280;48087;32.600;-97.100;2023-02-15T06:12:12;;;;9.166575
62107;BMP280;48087;32.600;-97.100;2023-02-15T06:17:17;;;;8.999910000000002
62107;BMP280;48087;32.600;-97.100;2023-02-15T06:22:21;;;;9.11102
62107;BMP280;48087;32.600;-97.100;2023-02-15T06:27:25;;;;9.166575
62107;BMP280;48087;32.600;-97.100;2023-02-15T06:32:29;;;;9.77768
62107;BMP280;48087;32.600;-97.100;2023-02-15T06:37:34;;;;9.77768
62107;BMP280;48087;32.600;-97.100;2023-02-15T06:42:36;;;;9.555460000000002
62107;BMP280;48087;32.600;-97.100;2023-02-15T06:47:41;;;;9.499905
62107;BMP280;48087;32.600;-97.100;2023-02-15T06:52:45;;;;9.388794999999998
62107;BMP280;48087;32.600;-97.100;2023-02-15T06:57:50;;;;9.277685000000002
62107;BMP280;48087;32.600;-97.100;2023-02-15T07:02:53;;;;9.388794999999998
62107;BMP280;48087;32.600;-97.100;2023-02-15T07:07:58;;;;9.277685000000002
62107;BMP280;48087;32.600;-97.100;2023-02-15T07:13:00;;;;9.166575
62107;BMP280;48087;32.600;-97.100;2023-02-15T07:18:05;;;;9.055464999999998
62107;BMP280;48087;32.600;-97.100;2023-02-15T07:23:09;;;;8.944355
62107;BMP280;48087;32.600;-97.100;2023-02-15T07:28:14;;;;8.777689999999998
62107;BMP280;48087;32.600;-97.100;2023-02-15T07:33:16;;;;8.833245
62107;BMP280;48087;32.600;-97.100;2023-02-15T07:38:22;;;;8.833245
62107;BMP280;48087;32.600;-97.100;2023-02-15T07:43:24;;;;8.8888
62107;BMP280;48087;32.600;-97.100;2023-02-15T07:48:29;;;;8.8888
62107;BMP280;48087;32.600;-97.100;2023-02-15T07:53:33;;;;8.833245
62107;BMP280;48087;32.600;-97.100;2023-02-15T07:58:38;;;;8.777689999999998
62107;BMP280;48087;32.600;-97.100;2023-02-15T08:03:40;;;;8.8888
62107;BMP280;48087;32.600;-97.100;2023-02-15T08:08:46;;;;8.722135000000002
62107;BMP280;48087;32.600;-97.100;2023-02-15T08:13:49;;;;8.833245
62107;BMP280;48087;32.600;-97.100;2023-02-15T08:18:54;;;;8.944355
62107;BMP280;48087;32.600;-97.100;2023-02-15T08:23:56;;;;8.777689999999998
62107;BMP280;48087;32.600;-97.100;2023-02-15T08:29:01;;;;8.444360000000001
62107;BMP280;48087;32.600;-97.100;2023-02-15T08:34:04;;;;8.33325
62107;BMP280;48087;32.600;-97.100;2023-02-15T08:39:09;;;;8.55547
62107;BMP280;48087;32.600;-97.100;2023-02-15T08:44:13;;;;8.499914999999998
62107;BMP280;48087;32.600;-97.100;2023-02-15T08:49:18;;;;8.777689999999998
62107;BMP280;48087;32.600;-97.100;2023-02-15T08:54:20;;;;8.55547
62107;BMP280;48087;32.600;-97.100;2023-02-15T08:59:25;;;;8.222139999999998
62107;BMP280;48087;32.600;-97.100;2023-02-15T09:04:28;;;;7.888810000000001
62107;BMP280;48087;32.600;-97.100;2023-02-15T09:09:33;;;;7.888810000000001
62107;BMP280;48087;32.600;-97.100;2023-02-15T09:14:36;;;;8.499914999999998
62107;BMP280;48087;32.600;-97.100;2023-02-15T09:19:41;;;;8.277695
62107;BMP280;48087;32.600;-97.100;2023-02-15T09:24:44;;;;8.055475
62107;BMP280;48087;32.600;-97.100;2023-02-15T09:29:49;;;;7.833255
62107;BMP280;48087;32.600;-97.100;2023-02-15T09:34:52;;;;7.833255
62107;BMP280;48087;32.600;-97.100;2023-02-15T09:39:57;;;;7.611035000000001
62107;BMP280;48087;32.600;-97.100;2023-02-15T09:45:03;;;;7.444369999999999
62107;BMP280;48087;32.600;-97.100;2023-02-15T09:50:06;;;;7.6665899999999985
62107;BMP280;48087;32.600;-97.100;2023-02-15T09:55:11;;;;7.833255
62107;BMP280;48087;32.600;-97.100;2023-02-15T10:00:30;;;;7.888810000000001
62107;BMP280;48087;32.600;-97.100;2023-02-15T10:05:35;;;;8.55547
62107;BMP280;48087;32.600;-97.100;2023-02-15T10:10:38;;;;8.444360000000001
62107;BMP280;48087;32.600;-97.100;2023-02-15T10:15:45;;;;8.777689999999998
62107;BMP280;48087;32.600;-97.100;2023-02-15T10:20:51;;;;9.055464999999998
62107;BMP280;48087;32.600;-97.100;2023-02-15T10:25:50;;;;9.333239999999998
62107;BMP280;48087;32.600;-97.100;2023-02-15T10:30:53;;;;9.555460000000002
62107;BMP280;48087;32.600;-97.100;2023-02-15T10:35:59;;;;9.555460000000002
62107;BMP280;48087;32.600;-97.100;2023-02-15T10:41:05;;;;9.388794999999998
62107;BMP280;48087;32.600;-97.100;2023-02-15T10:46:07;;;;9.22213
62107;BMP280;48087;32.600;-97.100;2023-02-15T10:51:09;;;;9.611014999999998
62107;BMP280;48087;32.600;-97.100;2023-02-15T10:56:16;;;;9.611014999999998
62107;BMP280;48087;32.600;-97.100;2023-02-15T11:01:18;;;;9.44435
62107;BMP280;48087;32.600;-97.100;2023-02-15T11:06:21;;;;9.611014999999998
62107;BMP280;48087;32.600;-97.100;2023-02-15T11:11:26;;;;9.333239999999998
62107;BMP280;48087;32.600;-97.100;2023-02-15T11:16:29;;;;9.333239999999998
62107;BMP280;48087;32.600;-97.100;2023-02-15T11:21:34;;;;9.277685000000002
62107;BMP280;48087;32.600;-97.100;2023-02-15T11:26:38;;;;9.055464999999998
62107;BMP280;48087;32.600;-97.100;2023-02-15T11:31:41;;;;9.11102
62107;BMP280;48087;32.600;-97.100;2023-02-15T11:36:45;;;;9.77768
62107;BMP280;48087;32.600;-97.100;2023-02-15T11:41:49;;;;9.833235000000002
62107;BMP280;48087;32.600;-97.100;2023-02-15T11:46:53;;;;9.888789999999998
62107;BMP280;48087;32.600;-97.100;2023-02-15T11:51:57;;;;10.166564999999999
62107;BMP280;48087;32.600;-97.100;2023-02-15T11:57:03;;;;10.277675
62107;BMP280;48087;32.600;-97.100;2023-02-15T12:02:09;;;;10.277675
62107;BMP280;48087;32.600;-97.100;2023-02-15T12:07:10;;;;10.388785000000002
62107;BMP280;48087;32.600;-97.100;2023-02-15T12:12:20;;;;10.499894999999999
62107;BMP280;48087;32.600;-97.100;2023-02-15T12:17:17;;;;10.55545
62107;BMP280;48087;32.600;-97.100;2023-02-15T12:22:22;;;;10.66656
62107;BMP280;48087;32.600;-97.100;2023-02-15T12:27:24;;;;10.55545
62107;BMP280;48087;32.600;-97.100;2023-02-15T12:32:29;;;;10.33323
62107;BMP280;48087;32.600;-97.100;2023-02-15T12:37:32;;;;10.33323
62107;BMP280;48087;32.600;-97.100;2023-02-15T12:42:41;;;;10.33323
62107;BMP280;48087;32.600;-97.100;2023-02-15T12:47:39;;;;10.277675
62107;BMP280;48087;32.600;-97.100;2023-02-15T12:52:45;;;;10.222119999999999
62107;BMP280;48087;32.600;-97.100;2023-02-15T12:57:48;;;;10.222119999999999
62107;BMP280;48087;32.600;-97.100;2023-02-15T13:02:53;;;;10.166564999999999
62107;BMP280;48087;32.600;-97.100;2023-02-15T13:07:56;;;;9.9999
62107;BMP280;48087;32.600;-97.100;2023-02-15T13:13:01;;;;9.722125
62107;BMP280;48087;32.600;-97.100;2023-02-15T13:18:04;;;;9.611014999999998
62107;BMP280;48087;32.600;-97.100;2023-02-15T13:23:10;;;;9.77768
62107;BMP280;48087;32.600;-97.100;2023-02-15T13:28:12;;;;9.888789999999998
62107;BMP280;48087;32.600;-97.100;2023-02-15T13:33:17;;;;9.9999
62107;BMP280;48087;32.600;-97.100;2023-02-15T13:38:24;;;;9.888789999999998
62107;BMP280;48087;32.600;-97.100;2023-02-15T13:43:28;;;;10.055455
62107;BMP280;48087;32.600;-97.100;2023-02-15T13:48:31;;;;10.222119999999999
62107;BMP280;48087;32.600;-97.100;2023-02-15T13:53:37;;;;10.66656
62107;BMP280;48087;32.600;-97.100;2023-02-15T13:58:43;;;;11.166555
62107;BMP280;48087;32.600;-97.100;2023-02-15T14:03:45;;;;11.388774999999999
62107;BMP280;48087;32.600;-97.100;2023-02-15T14:08:49;;;;11.666549999999999
62107;BMP280;48087;32.600;-97.100;2023-02-15T14:13:53;;;;12.055435000000001
62107;BMP280;48087;32.600;-97.100;2023-02-15T14:18:54;;;;12.722095
62107;BMP280;48087;32.600;-97.100;2023-02-15T14:23:58;;;;13.55542
62107;BMP280;48087;32.600;-97.100;2023-02-15T14:29:02;;;;13.610975
62107;BMP280;48087;32.600;-97.100;2023-02-15T14:34:04;;;;13.499864999999998
62107;BMP280;48087;32.600;-97.100;2023-02-15T14:39:11;;;;14.388744999999998
62107;BMP280;48087;32.600;-97.100;2023-02-15T14:44:13;;;;15.222069999999999
62107;BMP280;48087;32.600;-97.100;2023-02-15T14:49:17;;;;15.555399999999999
62107;BMP280;48087;32.600;-97.100;2023-02-15T14:55:34;;;;15.722064999999999
62107;BMP280;48087;32.600;-97.100;2023-02-15T14:59:23;;;;15.944285
62107;BMP280;48087;32.600;-97.100;2023-02-15T15:04:29;;;;16.44428
62107;BMP280;48087;32.600;-97.100;2023-02-15T15:09:31;;;;16.388725
62107;BMP280;48087;32.600;-97.100;2023-02-15T15:14:37;;;;16.33317
62107;BMP280;48087;32.600;-97.100;2023-02-15T15:19:57;;;;16.499835
62107;BMP280;48087;32.600;-97.100;2023-02-15T15:24:47;;;;16.722055
62107;BMP280;48087;32.600;-97.100;2023-02-15T15:29:47;;;;16.833164999999997
62107;BMP280;48087;32.600;-97.100;2023-02-15T15:34:56;;;;17.22205
62107;BMP280;48087;32.600;-97.100;2023-02-15T15:40:04;;;;17.66649
62107;BMP280;48087;32.600;-97.100;2023-02-15T15:45:10;;;;17.999820000000003
62107;BMP280;48087;32.600;-97.100;2023-02-15T15:50:04;;;;18.166485
62107;BMP280;48087;32.600;-97.100;2023-02-15T15:55:14;;;;18.22204
62107;BMP280;48087;32.600;-97.100;2023-02-15T16:00:22;;;;18.44426
62107;BMP280;48087;32.600;-97.100;2023-02-15T16:05:16;;;;18.722035
62107;BMP280;48087;32.600;-97.100;2023-02-15T16:10:20;;;;19.055365
62107;BMP280;48087;32.600;-97.100;2023-02-15T16:15:25;;;;18.99981
62107;BMP280;48087;32.600;-97.100;2023-02-15T16:20:29;;;;19.222029999999997
62107;BMP280;48087;32.600;-97.100;2023-02-15T16:25:35;;;;19.499804999999995
62107;BMP280;48087;32.600;-97.100;2023-02-15T16:30:35;;;;19.55536
62107;BMP280;48087;32.600;-97.100;2023-02-15T16:35:40;;;;19.610915
62107;BMP280;48087;32.600;-97.100;2023-02-15T16:40:47;;;;19.833135000000002
62107;BMP280;48087;32.600;-97.100;2023-02-15T16:45:47;;;;19.888689999999997
62107;BMP280;48087;32.600;-97.100;2023-02-15T16:50:53;;;;20.055354999999995
62107;BMP280;48087;32.600;-97.100;2023-02-15T16:55:57;;;;19.777579999999997
62107;BMP280;48087;32.600;-97.100;2023-02-15T17:01:00;;;;19.277585000000002
62107;BMP280;48087;32.600;-97.100;2023-02-15T17:06:04;;;;19.333139999999997
62107;BMP280;48087;32.600;-97.100;2023-02-15T17:11:13;;;;19.277585000000002
62107;BMP280;48087;32.600;-97.100;2023-02-15T17:16:22;;;;19.222029999999997
62107;BMP280;48087;32.600;-97.100;2023-02-15T17:21:16;;;;19.277585000000002
62107;BMP280;48087;32.600;-97.100;2023-02-15T17:26:20;;;;19.944245000000002
62107;BMP280;48087;32.600;-97.100;2023-02-15T17:31:24;;;;19.833135000000002
62107;BMP280;48087;32.600;-97.100;2023-02-15T17:36:28;;;;19.722025
62107;BMP280;48087;32.600;-97.100;2023-02-15T17:41:32;;;;19.499804999999995
62107;BMP280;48087;32.600;-97.100;2023-02-15T17:46:36;;;;19.833135000000002
62107;BMP280;48087;32.600;-97.100;2023-02-15T17:51:39;;;;20.277575
62107;BMP280;48087;32.600;-97.100;2023-02-15T17:56:43;;;;20.222020000000004
62107;BMP280;48087;32.600;-97.100;2023-02-15T18:01:48;;;;20.499795000000002
62107;BMP280;48087;32.600;-97.100;2023-02-15T18:06:51;;;;21.055345000000003
62107;BMP280;48087;32.600;-97.100;2023-02-15T18:11:55;;;;21.277565
62107;BMP280;48087;32.600;-97.100;2023-02-15T18:17:00;;;;21.77756
62107;BMP280;48087;32.600;-97.100;2023-02-15T18:22:04;;;;21.77756
62107;BMP280;48087;32.600;-97.100;2023-02-15T18:27:07;;;;21.944225
62107;BMP280;48087;32.600;-97.100;2023-02-15T18:32:14;;;;22.222
62107;BMP280;48087;32.600;-97.100;2023-02-15T18:37:15;;;;22.666439999999998
62107;BMP280;48087;32.600;-97.100;2023-02-15T18:42:20;;;;22.721995000000003
62107;BMP280;48087;32.600;-97.100;2023-02-15T18:47:23;;;;23.166435
62107;BMP280;48087;32.600;-97.100;2023-02-15T18:52:28;;;;23.277545000000003
62107;BMP280;48087;32.600;-97.100;2023-02-15T18:57:30;;;;23.277545000000003
62107;BMP280;48087;32.600;-97.100;2023-02-15T19:02:36;;;;23.721985
62107;BMP280;48087;32.600;-97.100;2023-02-15T19:07:38;;;;23.833095000000004
62107;BMP280;48087;32.600;-97.100;2023-02-15T19:12:43;;;;23.999760000000002
62107;BMP280;48087;32.600;-97.100;2023-02-15T19:17:47;;;;24.166425
62107;BMP280;48087;32.600;-97.100;2023-02-15T19:22:52;;;;23.610875
62107;BMP280;48087;32.600;-97.100;2023-02-15T19:27:54;;;;23.88865
62107;BMP280;48087;32.600;-97.100;2023-02-15T19:32:59;;;;24.055314999999997
62107;BMP280;48087;32.600;-97.100;2023-02-15T19:38:03;;;;24.055314999999997
62107;BMP280;48087;32.600;-97.100;2023-02-15T19:43:09;;;;24.555310000000002
62107;BMP280;48087;32.600;-97.100;2023-02-15T19:48:11;;;;25.055304999999997
62107;BMP280;48087;32.600;-97.100;2023-02-15T19:53:18;;;;25.388635
62107;BMP280;48087;32.600;-97.100;2023-02-15T19:58:18;;;;25.666410000000003
62107;BMP280;48087;32.600;-97.100;2023-02-15T20:03:23;;;;25.499745000000004
62107;BMP280;48087;32.600;-97.100;2023-02-15T20:08:27;;;;25.333079999999995
62107;BMP280;48087;32.600;-97.100;2023-02-15T20:13:31;;;;25.721964999999997
62107;BMP280;48087;32.600;-97.100;2023-02-15T20:18:34;;;;25.5553
62107;BMP280;48087;32.600;-97.100;2023-02-15T20:23:39;;;;25.721964999999997
62107;BMP280;48087;32.600;-97.100;2023-02-15T20:28:42;;;;26.277514999999998
62107;BMP280;48087;32.600;-97.100;2023-02-15T20:33:47;;;;26.22196
62107;BMP280;48087;32.600;-97.100;2023-02-15T20:39:11;;;;26.166404999999997
62107;BMP280;48087;32.600;-97.100;2023-02-15T20:44:16;;;;26.166404999999997
62107;BMP280;48087;32.600;-97.100;2023-02-15T20:49:14;;;;25.833075
62107;BMP280;48087;32.600;-97.100;2023-02-15T20:54:20;;;;26.22196
62107;BMP280;48087;32.600;-97.100;2023-02-15T20:59:23;;;;26.610845
62107;BMP280;48087;32.600;-97.100;2023-02-15T21:04:28;;;;26.444179999999996
62107;BMP280;48087;32.600;-97.100;2023-02-15T21:09:30;;;;26.388625
62107;BMP280;48087;32.600;-97.100;2023-02-15T21:14:35;;;;26.277514999999998
62107;BMP280;48087;32.600;-97.100;2023-02-15T21:19:38;;;;26.166404999999997
62107;BMP280;48087;32.600;-97.100;2023-02-15T21:24:43;;;;26.610845
62107;BMP280;48087;32.600;-97.100;2023-02-15T21:29:46;;;;26.944174999999998
62107;BMP280;48087;32.600;-97.100;2023-02-15T21:34:51;;;;26.833064999999998
62107;BMP280;48087;32.600;-97.100;2023-02-15T21:39:55;;;;26.721954999999998
62107;BMP280;48087;32.600;-97.100;2023-02-15T21:44:58;;;;26.388625
62107;BMP280;48087;32.600;-97.100;2023-02-15T21:50:03;;;;26.444179999999996
62107;BMP280;48087;32.600;-97.100;2023-02-15T21:55:07;;;;25.99974
62107;BMP280;48087;32.600;-97.100;2023-02-15T22:00:12;;;;25.721964999999997
62107;BMP280;48087;32.600;-97.100;2023-02-15T22:05:16;;;;25.944185
62107;BMP280;48087;32.600;-97.100;2023-02-15T22:10:19;;;;26.22196
62107;BMP280;48087;32.600;-97.100;2023-02-15T22:15:23;;;;25.5553
62107;BMP280;48087;32.600;-97.100;2023-02-15T22:20:27;;;;24.99975
62107;BMP280;48087;32.600;-97.100;2023-02-15T22:25:31;;;;24.944195000000004
62107;BMP280;48087;32.600;-97.100;2023-02-15T22:30:35;;;;24.777529999999995
62107;BMP280;48087;32.600;-97.100;2023-02-15T22:35:39;;;;24.610864999999997
62107;BMP280;48087;32.600;-97.100;2023-02-15T22:40:41;;;;24.777529999999995
62107;BMP280;48087;32.600;-97.100;2023-02-15T22:45:46;;;;25.388635
62107;BMP280;48087;32.600;-97.100;2023-02-15T22:50:50;;;;25.5553
62107;BMP280;48087;32.600;-97.100;2023-02-15T22:55:55;;;;25.721964999999997
62107;BMP280;48087;32.600;-97.100;2023-02-15T23:00:58;;;;25.666410000000003
62107;BMP280;48087;32.600;-97.100;2023-02-15T23:06:03;;;;25.5553
62107;BMP280;48087;32.600;-97.100;2023-02-15T23:11:07;;;;25.499745000000004
62107;BMP280;48087;32.600;-97.100;2023-02-15T23:16:12;;;;25.499745000000004
62107;BMP280;48087;32.600;-97.100;2023-02-15T23:21:16;;;;25.44419
62107;BMP280;48087;32.600;-97.100;2023-02-15T23:26:19;;;;25.388635
62107;BMP280;48087;32.600;-97.100;2023-02-15T23:31:22;;;;25.166414999999997
62107;BMP280;48087;32.600;-97.100;2023-02-15T23:36:27;;;;24.777529999999995
62107;BMP280;48087;32.600;-97.100;2023-02-15T23:41:29;;;;24.610864999999997
62107;BMP280;48087;32.600;-97.100;2023-02-15T23:46:35;;;;24.499754999999997
62107;BMP280;48087;32.600;-97.100;2023-02-15T23:51:38;;;;24.277535
62107;BMP280;48087;32.600;-97.100;2023-02-15T23:56:43;;;;24.110870000000002
